createdAt,value
2022-08-03T00:00:34.367Z,60.92
2022-08-03T00:01:36.419Z,61.09
2022-08-03T00:02:38.542Z,61.29
2022-08-03T00:03:40.623Z,61.36
2022-08-03T00:04:42.578Z,61.28
2022-08-03T00:06:03.736Z,61.31
2022-08-03T00:06:48.228Z,61.31
2022-08-03T00:07:50.175Z,61.41
2022-08-03T00:08:52.124Z,61.37
2022-08-03T00:09:54.084Z,61.31
2022-08-03T00:10:56.237Z,61.25
2022-08-03T00:11:58.190Z,61.32
2022-08-03T00:13:00.150Z,61.30
2022-08-03T00:14:02.092Z,61.18
2022-08-03T00:15:04.060Z,61.20
2022-08-03T00:16:07.953Z,61.27
2022-08-03T00:17:09.899Z,61.28
2022-08-03T00:18:11.856Z,61.32
2022-08-03T00:19:13.807Z,61.30
2022-08-03T00:20:17.508Z,61.20
2022-08-03T00:21:19.462Z,61.11
2022-08-03T00:22:21.605Z,61.09
2022-08-03T00:23:25.305Z,61.09
2022-08-03T00:24:27.260Z,61.09
2022-08-03T00:25:29.119Z,61.09
2022-08-03T00:26:32.704Z,61.06
2022-08-03T00:27:34.557Z,61.10
2022-08-03T00:28:37.628Z,61.09
2022-08-03T00:29:59.691Z,61.13
2022-08-03T00:30:43.370Z,61.13
2022-08-03T00:31:52.204Z,61.11
2022-08-03T00:32:50.345Z,61.12
2022-08-03T00:33:58.887Z,61.14
2022-08-03T00:34:57.617Z,61.11
2022-08-03T00:35:59.788Z,61.04
2022-08-03T00:37:01.738Z,61.07
2022-08-03T00:38:03.593Z,61.09
2022-08-03T00:39:05.544Z,61.09
2022-08-03T00:40:08.210Z,61.05
2022-08-03T00:41:11.302Z,61.09
2022-08-03T00:42:15.900Z,61.12
2022-08-03T00:43:17.968Z,61.09
2022-08-03T00:44:19.915Z,61.05
2022-08-03T00:45:22.071Z,61.09
2022-08-03T00:46:24.332Z,61.09
2022-08-03T00:47:26.285Z,61.18
2022-08-03T00:48:32.972Z,61.24
2022-08-03T00:49:32.017Z,61.35
2022-08-03T00:50:35.011Z,61.33
2022-08-03T00:51:36.971Z,61.28
2022-08-03T00:52:38.922Z,61.22
2022-08-03T00:53:40.857Z,61.15
2022-08-03T00:54:42.819Z,61.10
2022-08-03T00:55:44.875Z,61.03
2022-08-03T00:56:59.253Z,60.97
2022-08-03T00:57:50.634Z,60.92
2022-08-03T00:58:52.570Z,60.86
2022-08-03T00:59:54.524Z,60.76
2022-08-03T01:00:56.629Z,60.82
2022-08-03T01:01:58.627Z,60.82
2022-08-03T01:03:00.586Z,60.72
2022-08-03T01:04:02.538Z,60.69
2022-08-03T01:05:04.487Z,60.61
2022-08-03T01:06:06.643Z,60.58
2022-08-03T01:07:10.838Z,60.57
2022-08-03T01:08:12.187Z,60.56
2022-08-03T01:09:14.139Z,60.56
2022-08-03T01:10:17.628Z,60.48
2022-08-03T01:11:19.581Z,60.36
2022-08-03T01:12:21.534Z,60.36
2022-08-03T01:13:59.812Z,60.37
2022-08-03T01:14:27.180Z,60.35
2022-08-03T01:15:29.437Z,60.28
2022-08-03T01:16:36.524Z,60.26
2022-08-03T01:17:35.594Z,60.25
2022-08-03T01:18:37.445Z,60.27
2022-08-03T01:19:39.399Z,60.28
2022-08-03T01:20:41.451Z,60.31
2022-08-03T01:21:43.611Z,60.31
2022-08-03T01:22:46.178Z,60.32
2022-08-03T01:23:48.543Z,60.32
2022-08-03T01:24:50.492Z,60.29
2022-08-03T01:25:54.570Z,60.26
2022-08-03T01:26:56.442Z,60.30
2022-08-03T01:27:58.396Z,60.34
2022-08-03T01:29:00.346Z,60.38
2022-08-03T01:30:02.300Z,60.37
2022-08-03T01:31:04.253Z,60.42
2022-08-03T01:33:02.784Z,60.41
2022-08-03T01:33:10.612Z,60.35
2022-08-03T01:34:14.668Z,60.30
2022-08-03T01:35:16.670Z,60.26
2022-08-03T01:36:19.451Z,60.29
2022-08-03T01:37:21.395Z,60.27
2022-08-03T01:38:23.349Z,60.27
2022-08-03T01:39:25.195Z,60.25
2022-08-03T01:40:28.081Z,60.28
2022-08-03T01:41:30.253Z,60.30
2022-08-03T01:42:32.180Z,60.26
2022-08-03T01:43:59.002Z,60.26
2022-08-03T01:44:38.002Z,60.27
2022-08-03T01:45:40.007Z,60.35
2022-08-03T01:46:48.823Z,60.38
2022-08-03T01:47:45.949Z,60.36
2022-08-03T01:48:47.907Z,60.42
2022-08-03T01:49:49.902Z,60.42
2022-08-03T01:50:52.011Z,60.43
2022-08-03T01:52:04.587Z,60.45
2022-08-03T01:52:57.758Z,60.26
2022-08-03T01:53:59.710Z,60.26
2022-08-03T01:55:01.605Z,60.50
2022-08-03T01:56:03.646Z,60.50
2022-08-03T01:57:05.668Z,60.52
2022-08-03T01:58:07.622Z,60.55
2022-08-03T01:59:09.573Z,60.54
2022-08-03T02:00:11.939Z,60.54
2022-08-03T02:01:14.089Z,60.47
2022-08-03T02:02:32.763Z,60.42
2022-08-03T02:03:19.844Z,60.43
2022-08-03T02:04:22.011Z,60.43
2022-08-03T02:05:23.955Z,60.43
2022-08-03T02:07:01.275Z,60.42
2022-08-03T02:07:30.318Z,60.43
2022-08-03T02:08:32.675Z,60.35
2022-08-03T02:09:34.626Z,60.37
2022-08-03T02:10:36.786Z,60.43
2022-08-03T02:11:38.737Z,60.49
2022-08-03T02:12:40.690Z,60.44
2022-08-03T02:13:42.636Z,60.44
2022-08-03T02:14:44.512Z,60.49
2022-08-03T02:15:46.445Z,60.54
2022-08-03T02:16:48.598Z,60.52
2022-08-03T02:17:50.571Z,60.56
2022-08-03T02:18:52.609Z,60.53
2022-08-03T02:19:54.565Z,60.54
2022-08-03T02:20:56.825Z,60.64
2022-08-03T02:22:01.370Z,60.63
2022-08-03T02:23:04.415Z,60.70
2022-08-03T02:24:06.380Z,60.66
2022-08-03T02:25:08.429Z,60.71
2022-08-03T02:26:10.679Z,60.77
2022-08-03T02:27:12.632Z,60.78
2022-08-03T02:28:14.584Z,60.79
2022-08-03T02:29:16.537Z,60.77
2022-08-03T02:30:18.794Z,60.79
2022-08-03T02:31:20.748Z,60.84
2022-08-03T02:32:22.705Z,60.85
2022-08-03T02:33:24.657Z,60.87
2022-08-03T02:34:26.709Z,60.80
2022-08-03T02:35:28.662Z,61.01
2022-08-03T02:36:31.949Z,61.04
2022-08-03T02:37:34.001Z,61.20
2022-08-03T02:38:35.954Z,61.14
2022-08-03T02:39:37.911Z,61.20
2022-08-03T02:40:40.576Z,61.18
2022-08-03T02:41:42.935Z,61.30
2022-08-03T02:42:44.886Z,61.36
2022-08-03T02:44:05.903Z,61.39
2022-08-03T02:44:50.840Z,61.32
2022-08-03T02:45:52.794Z,61.20
2022-08-03T02:46:54.848Z,61.21
2022-08-03T02:47:56.798Z,61.27
2022-08-03T02:48:58.799Z,61.32
2022-08-03T02:50:02.275Z,61.37
2022-08-03T02:51:04.297Z,61.37
2022-08-03T02:52:06.254Z,61.37
2022-08-03T02:53:10.068Z,61.40
2022-08-03T02:54:11.996Z,61.40
2022-08-03T02:55:13.949Z,61.44
2022-08-03T02:56:16.820Z,61.46
2022-08-03T02:57:18.779Z,61.51
2022-08-03T02:58:20.731Z,61.57
2022-08-03T02:59:22.681Z,61.62
2022-08-03T03:00:27.844Z,61.65
2022-08-03T03:01:29.021Z,61.75
2022-08-03T03:02:30.995Z,61.82
2022-08-03T03:03:33.204Z,61.83
2022-08-03T03:04:36.748Z,61.86
2022-08-03T03:05:55.893Z,61.84
2022-08-03T03:06:42.697Z,61.88
2022-08-03T03:07:51.999Z,61.83
2022-08-03T03:08:50.289Z,61.84
2022-08-03T03:09:52.242Z,62.18
2022-08-03T03:10:55.654Z,62.17
2022-08-03T03:11:57.988Z,62.11
2022-08-03T03:12:59.940Z,62.09
2022-08-03T03:14:01.892Z,61.91
2022-08-03T03:15:03.843Z,61.91
2022-08-03T03:16:06.104Z,62.11
2022-08-03T03:17:08.056Z,62.33
2022-08-03T03:18:10.010Z,62.33
2022-08-03T03:19:13.092Z,62.12
2022-08-03T03:20:16.618Z,62.12
2022-08-03T03:21:20.679Z,62.21
2022-08-03T03:22:23.862Z,62.19
2022-08-03T03:23:26.016Z,62.20
2022-08-03T03:24:27.969Z,62.36
2022-08-03T03:25:29.923Z,62.69
2022-08-03T03:26:32.387Z,62.93
2022-08-03T03:27:34.340Z,63.18
2022-08-03T03:28:36.290Z,63.25
2022-08-03T03:29:39.382Z,63.34
2022-08-03T03:30:41.733Z,63.36
2022-08-03T03:31:43.684Z,63.39
2022-08-03T03:32:45.635Z,63.44
2022-08-03T03:33:47.590Z,63.43
2022-08-03T03:34:49.545Z,63.45
2022-08-03T03:35:53.232Z,63.79
2022-08-03T03:36:56.620Z,63.81
2022-08-03T03:37:58.576Z,63.77
2022-08-03T03:39:15.229Z,63.65
2022-08-03T03:40:04.323Z,63.63
2022-08-03T03:41:06.581Z,63.60
2022-08-03T03:42:08.861Z,63.62
2022-08-03T03:43:10.900Z,63.73
2022-08-03T03:44:12.853Z,63.76
2022-08-03T03:45:14.804Z,63.84
2022-08-03T03:46:17.270Z,63.91
2022-08-03T03:47:19.213Z,64.37
2022-08-03T03:48:23.013Z,64.41
2022-08-03T03:49:25.002Z,64.39
2022-08-03T03:50:28.449Z,64.34
2022-08-03T03:51:30.407Z,64.32
2022-08-03T03:52:32.563Z,64.26
2022-08-03T03:53:34.520Z,64.39
2022-08-03T03:54:36.477Z,64.52
2022-08-03T03:55:59.348Z,64.57
2022-08-03T03:56:42.321Z,64.59
2022-08-03T03:57:44.432Z,64.54
2022-08-03T03:58:46.420Z,64.55
2022-08-03T03:59:48.374Z,64.55
2022-08-03T04:00:50.611Z,64.57
2022-08-03T04:01:59.103Z,64.63
2022-08-03T04:02:56.380Z,64.66
2022-08-03T04:03:58.333Z,64.61
2022-08-03T04:05:00.286Z,64.51
2022-08-03T04:06:02.447Z,64.48
2022-08-03T04:07:04.401Z,64.54
2022-08-03T04:08:06.453Z,64.72
2022-08-03T04:09:08.401Z,64.67
2022-08-03T04:10:14.369Z,64.68
2022-08-03T04:11:14.874Z,64.71
2022-08-03T04:12:17.155Z,64.75
2022-08-03T04:13:19.283Z,64.74
2022-08-03T04:14:21.246Z,64.84
2022-08-03T04:15:23.191Z,64.85
2022-08-03T04:16:26.882Z,64.78
2022-08-03T04:17:28.834Z,64.74
2022-08-03T04:18:30.992Z,64.74
2022-08-03T04:19:32.945Z,64.73
2022-08-03T04:20:35.005Z,64.72
2022-08-03T04:21:36.958Z,64.66
2022-08-03T04:22:38.904Z,64.63
2022-08-03T04:23:40.859Z,64.59
2022-08-03T04:24:42.814Z,64.61
2022-08-03T04:25:44.765Z,64.56
2022-08-03T04:26:52.269Z,64.52
2022-08-03T04:28:07.570Z,64.46
2022-08-03T04:28:54.307Z,64.40
2022-08-03T04:29:56.258Z,64.30
2022-08-03T04:30:58.620Z,64.24
2022-08-03T04:32:00.573Z,64.23
2022-08-03T04:33:04.064Z,64.21
2022-08-03T04:34:06.014Z,64.21
2022-08-03T04:35:07.971Z,64.18
2022-08-03T04:36:10.740Z,64.16
2022-08-03T04:37:12.690Z,64.13
2022-08-03T04:38:14.645Z,64.14
2022-08-03T04:39:16.699Z,64.13
2022-08-03T04:40:20.409Z,64.12
2022-08-03T04:41:24.905Z,64.10
2022-08-03T04:42:27.680Z,64.12
2022-08-03T04:43:29.633Z,64.13
2022-08-03T04:44:31.583Z,64.13
2022-08-03T04:45:33.541Z,64.12
2022-08-03T04:46:35.795Z,64.10
2022-08-03T04:47:37.751Z,64.10
2022-08-03T04:48:43.457Z,64.12
2022-08-03T04:49:43.561Z,64.07
2022-08-03T04:50:45.652Z,64.07
2022-08-03T04:51:47.608Z,64.08
2022-08-03T04:52:49.560Z,64.09
2022-08-03T04:53:51.507Z,64.08
2022-08-03T04:54:55.002Z,64.19
2022-08-03T04:55:56.952Z,64.33
2022-08-03T04:57:00.850Z,64.41
2022-08-03T04:58:02.797Z,64.52
2022-08-03T04:59:04.755Z,64.64
2022-08-03T05:00:07.318Z,64.84
2022-08-03T05:01:09.277Z,64.95
2022-08-03T05:02:11.235Z,65.01
2022-08-03T05:03:20.144Z,65.06
2022-08-03T05:04:16.934Z,65.11
2022-08-03T05:05:18.927Z,65.08
2022-08-03T05:06:25.016Z,64.96
2022-08-03T05:07:26.569Z,64.77
2022-08-03T05:08:30.310Z,64.63
2022-08-03T05:09:33.702Z,64.58
2022-08-03T05:10:38.616Z,64.58
2022-08-03T05:11:40.582Z,64.57
2022-08-03T05:12:42.531Z,64.48
2022-08-03T05:13:44.376Z,64.34
2022-08-03T05:14:46.239Z,64.21
2022-08-03T05:15:48.183Z,64.18
2022-08-03T05:16:50.643Z,64.14
2022-08-03T05:17:53.419Z,64.08
2022-08-03T05:18:55.372Z,64.06
2022-08-03T05:19:57.325Z,63.98
2022-08-03T05:20:59.480Z,63.91
2022-08-03T05:22:01.434Z,63.79
2022-08-03T05:23:03.383Z,63.69
2022-08-03T05:24:05.337Z,63.49
2022-08-03T05:25:07.286Z,63.49
2022-08-03T05:26:10.263Z,63.36
2022-08-03T05:27:12.219Z,63.30
2022-08-03T05:28:14.172Z,63.26
2022-08-03T05:29:16.124Z,63.12
2022-08-03T05:30:27.270Z,63.12
2022-08-03T05:31:22.487Z,63.04
2022-08-03T05:32:24.547Z,62.97
2022-08-03T05:33:26.488Z,62.91
2022-08-03T05:34:28.446Z,62.87
2022-08-03T05:35:56.157Z,62.87
2022-08-03T05:36:34.195Z,62.87
2022-08-03T05:37:36.144Z,62.87
2022-08-03T05:38:38.100Z,62.77
2022-08-03T05:39:40.050Z,62.78
2022-08-03T05:40:56.635Z,62.81
2022-08-03T05:41:46.005Z,62.91
2022-08-03T05:42:48.157Z,62.99
2022-08-03T05:43:50.112Z,63.04
2022-08-03T05:44:52.069Z,62.69
2022-08-03T05:46:11.457Z,62.99
2022-08-03T05:46:58.325Z,62.91
2022-08-03T05:48:00.277Z,62.70
2022-08-03T05:49:02.279Z,62.67
2022-08-03T05:50:04.488Z,62.66
2022-08-03T05:51:06.445Z,62.52
2022-08-03T05:52:21.042Z,62.38
2022-08-03T05:53:12.091Z,62.36
2022-08-03T05:54:14.035Z,62.28
2022-08-03T05:55:15.997Z,62.20
2022-08-03T05:56:18.763Z,62.22
2022-08-03T05:57:20.919Z,62.23
2022-08-03T05:58:23.694Z,62.18
2022-08-03T05:59:38.215Z,62.01
2022-08-03T06:00:32.409Z,61.91
2022-08-03T06:01:34.600Z,61.72
2022-08-03T06:02:36.627Z,61.65
2022-08-03T06:03:38.583Z,61.65
2022-08-03T06:04:40.528Z,61.54
2022-08-03T06:05:43.393Z,61.61
2022-08-03T06:06:46.280Z,61.65
2022-08-03T06:07:48.234Z,61.70
2022-08-03T06:08:50.185Z,61.71
2022-08-03T06:10:35.602Z,61.82
2022-08-03T06:10:55.932Z,61.87
2022-08-03T06:11:57.892Z,61.88
2022-08-03T06:12:59.967Z,61.81
2022-08-03T06:14:01.896Z,61.78
2022-08-03T06:15:04.141Z,61.66
2022-08-03T06:16:06.209Z,61.47
2022-08-03T06:17:08.162Z,61.38
2022-08-03T06:18:10.115Z,61.38
2022-08-03T06:19:12.066Z,61.31
2022-08-03T06:20:14.941Z,61.09
2022-08-03T06:21:16.892Z,61.00
2022-08-03T06:22:19.114Z,61.05
2022-08-03T06:23:25.294Z,61.16
2022-08-03T06:24:26.542Z,61.23
2022-08-03T06:25:28.490Z,61.19
2022-08-03T06:26:30.650Z,61.24
2022-08-03T06:27:37.052Z,61.07
2022-08-03T06:28:52.376Z,60.83
2022-08-03T06:29:40.191Z,60.53
2022-08-03T06:30:42.349Z,60.39
2022-08-03T06:31:44.328Z,60.33
2022-08-03T06:32:51.651Z,60.20
2022-08-03T06:34:32.440Z,60.15
2022-08-03T06:34:53.850Z,60.23
2022-08-03T06:35:55.799Z,60.32
2022-08-03T06:37:01.909Z,60.43
2022-08-03T06:38:01.753Z,60.50
2022-08-03T06:39:03.707Z,60.61
2022-08-03T06:40:05.964Z,60.70
2022-08-03T06:41:07.920Z,60.65
2022-08-03T06:42:10.303Z,60.54
2022-08-03T06:43:12.827Z,60.50
2022-08-03T06:44:16.233Z,60.46
2022-08-03T06:45:18.192Z,60.46
2022-08-03T06:46:22.083Z,60.47
2022-08-03T06:47:24.038Z,60.49
2022-08-03T06:48:25.988Z,60.49
2022-08-03T06:49:28.007Z,60.58
2022-08-03T06:50:31.121Z,60.62
2022-08-03T06:52:03.661Z,60.61
2022-08-03T06:52:37.879Z,60.52
2022-08-03T06:53:40.279Z,60.48
2022-08-03T06:54:42.308Z,60.47
2022-08-03T06:55:44.772Z,60.48
2022-08-03T06:56:46.931Z,60.56
2022-08-03T06:57:48.971Z,60.57
2022-08-03T06:58:51.453Z,60.56
2022-08-03T07:00:10.527Z,60.62
2022-08-03T07:00:57.565Z,60.61
2022-08-03T07:01:59.562Z,60.55
2022-08-03T07:03:01.517Z,60.41
2022-08-03T07:04:03.467Z,60.41
2022-08-03T07:05:05.417Z,60.30
2022-08-03T07:06:07.988Z,60.21
2022-08-03T07:07:09.938Z,60.15
2022-08-03T07:08:11.992Z,60.15
2022-08-03T07:09:13.944Z,60.23
2022-08-03T07:10:17.741Z,60.21
2022-08-03T07:11:19.699Z,60.23
2022-08-03T07:12:21.647Z,60.29
2022-08-03T07:13:23.598Z,60.46
2022-08-03T07:14:25.553Z,60.51
2022-08-03T07:15:54.116Z,60.48
2022-08-03T07:16:31.710Z,60.48
2022-08-03T07:17:33.667Z,60.42
2022-08-03T07:18:35.613Z,60.42
2022-08-03T07:19:37.561Z,60.45
2022-08-03T07:20:40.134Z,60.48
2022-08-03T07:21:42.088Z,60.47
2022-08-03T07:22:44.037Z,60.45
2022-08-03T07:23:46.089Z,60.51
2022-08-03T07:24:48.047Z,60.63
2022-08-03T07:25:50.101Z,60.70
2022-08-03T07:26:52.259Z,60.71
2022-08-03T07:27:54.202Z,60.66
2022-08-03T07:28:58.007Z,60.64
2022-08-03T07:29:59.964Z,60.63
2022-08-03T07:31:02.011Z,60.63
2022-08-03T07:32:03.965Z,60.71
2022-08-03T07:33:05.918Z,60.76
2022-08-03T07:34:07.868Z,60.90
2022-08-03T07:35:24.637Z,61.07
2022-08-03T07:36:14.231Z,61.12
2022-08-03T07:37:16.595Z,60.99
2022-08-03T07:38:21.067Z,60.88
2022-08-03T07:39:22.445Z,60.77
2022-08-03T07:40:25.421Z,60.72
2022-08-03T07:41:29.217Z,60.75
2022-08-03T07:42:31.159Z,60.80
2022-08-03T07:43:33.222Z,60.92
2022-08-03T07:44:35.178Z,60.99
2022-08-03T07:45:37.128Z,61.03
2022-08-03T07:46:39.705Z,60.93
2022-08-03T07:47:41.647Z,61.00
2022-08-03T07:48:45.444Z,61.00
2022-08-03T07:49:47.400Z,60.98
2022-08-03T07:50:49.553Z,61.04
2022-08-03T07:51:51.508Z,61.08
2022-08-03T07:52:53.492Z,61.00
2022-08-03T07:53:55.509Z,60.88
2022-08-03T07:54:57.469Z,60.71
2022-08-03T07:55:59.414Z,60.69
2022-08-03T07:57:03.213Z,60.73
2022-08-03T07:58:05.292Z,60.73
2022-08-03T07:59:07.321Z,60.50
2022-08-03T08:00:10.094Z,60.36
2022-08-03T08:01:12.286Z,60.36
2022-08-03T08:02:16.411Z,60.35
2022-08-03T08:03:21.687Z,60.31
2022-08-03T08:04:23.639Z,60.28
2022-08-03T08:05:25.594Z,60.30
2022-08-03T08:06:28.362Z,60.34
2022-08-03T08:07:30.315Z,60.22
2022-08-03T08:08:32.267Z,60.15
2022-08-03T08:09:34.220Z,60.21
2022-08-03T08:10:37.391Z,60.27
2022-08-03T08:11:40.123Z,60.22
2022-08-03T08:12:42.226Z,60.14
2022-08-03T08:13:44.179Z,60.08
2022-08-03T08:14:46.309Z,60.00
2022-08-03T08:15:49.416Z,59.88
2022-08-03T08:16:52.897Z,59.87
2022-08-03T08:17:54.849Z,59.83
2022-08-03T08:18:56.808Z,59.81
2022-08-03T08:19:58.758Z,59.82
2022-08-03T08:21:01.558Z,59.66
2022-08-03T08:22:03.792Z,59.60
2022-08-03T08:23:33.866Z,59.77
2022-08-03T08:24:18.140Z,59.66
2022-08-03T08:25:15.077Z,59.35
2022-08-03T08:26:19.080Z,59.29
2022-08-03T08:27:21.026Z,59.19
2022-08-03T08:28:32.783Z,59.19
2022-08-03T08:29:26.670Z,59.19
2022-08-03T08:30:30.062Z,59.21
2022-08-03T08:31:33.446Z,59.35
2022-08-03T08:32:35.401Z,59.51
2022-08-03T08:34:01.426Z,59.61
2022-08-03T08:34:41.250Z,59.65
2022-08-03T08:35:43.201Z,59.67
2022-08-03T08:36:45.259Z,59.53
2022-08-03T08:37:51.134Z,59.50
2022-08-03T08:38:52.849Z,59.52
2022-08-03T08:39:54.806Z,59.58
2022-08-03T08:40:56.858Z,59.63
2022-08-03T08:41:58.808Z,59.63
2022-08-03T08:43:00.759Z,59.71
2022-08-03T08:44:02.713Z,59.70
2022-08-03T08:45:04.657Z,59.67
2022-08-03T08:46:09.795Z,59.06
2022-08-03T08:47:11.747Z,58.73
2022-08-03T08:48:13.694Z,58.68
2022-08-03T08:49:15.812Z,58.62
2022-08-03T08:50:27.476Z,58.67
2022-08-03T08:51:21.909Z,58.64
2022-08-03T08:52:25.235Z,58.77
2022-08-03T08:53:27.824Z,58.66
2022-08-03T08:54:29.914Z,58.64
2022-08-03T08:55:59.251Z,58.51
2022-08-03T08:56:35.668Z,58.42
2022-08-03T08:57:44.687Z,58.46
2022-08-03T08:58:41.415Z,58.51
2022-08-03T08:59:48.472Z,58.22
2022-08-03T09:00:47.507Z,58.46
2022-08-03T09:01:49.533Z,58.51
2022-08-03T09:02:51.475Z,58.50
2022-08-03T09:03:53.427Z,58.53
2022-08-03T09:04:55.377Z,58.40
2022-08-03T09:05:57.407Z,58.30
2022-08-03T09:07:19.259Z,58.23
2022-08-03T09:08:03.285Z,58.24
2022-08-03T09:09:05.246Z,58.15
2022-08-03T09:10:12.933Z,58.16
2022-08-03T09:11:12.511Z,57.91
2022-08-03T09:12:37.571Z,57.71
2022-08-03T09:13:18.168Z,57.55
2022-08-03T09:14:36.573Z,57.59
2022-08-03T09:15:23.926Z,57.89
2022-08-03T09:16:26.281Z,58.00
2022-08-03T09:17:28.233Z,58.05
2022-08-03T09:18:32.899Z,57.94
2022-08-03T09:19:33.986Z,57.83
2022-08-03T09:20:36.435Z,57.73
2022-08-03T09:21:38.602Z,57.51
2022-08-03T09:22:40.556Z,57.42
2022-08-03T09:24:00.707Z,57.65
2022-08-03T09:24:49.035Z,57.74
2022-08-03T09:25:50.203Z,57.94
2022-08-03T09:26:53.670Z,57.89
2022-08-03T09:27:56.054Z,57.85
2022-08-03T09:29:04.700Z,57.81
2022-08-03T09:30:01.907Z,57.85
2022-08-03T09:31:03.854Z,58.00
2022-08-03T09:32:05.812Z,57.83
2022-08-03T09:33:08.355Z,57.77
2022-08-03T09:34:10.634Z,57.72
2022-08-03T09:35:12.589Z,57.61
2022-08-03T09:36:14.937Z,57.44
2022-08-03T09:37:17.292Z,57.45
2022-08-03T09:38:19.469Z,57.20
2022-08-03T09:39:40.242Z,56.96
2022-08-03T09:40:25.526Z,56.92
2022-08-03T09:41:27.480Z,56.63
2022-08-03T09:42:29.432Z,56.35
2022-08-03T09:43:31.581Z,56.15
2022-08-03T09:44:34.662Z,56.30
2022-08-03T09:45:36.609Z,56.46
2022-08-03T09:46:38.664Z,56.40
2022-08-03T09:47:44.971Z,56.57
2022-08-03T09:48:46.166Z,56.51
2022-08-03T09:49:48.112Z,56.01
2022-08-03T09:50:57.120Z,56.26
2022-08-03T09:52:33.607Z,56.20
2022-08-03T09:52:57.855Z,56.15
2022-08-03T09:54:00.421Z,55.99
2022-08-03T09:55:02.586Z,55.93
2022-08-03T09:56:35.167Z,55.92
2022-08-03T09:57:08.538Z,55.74
2022-08-03T09:58:10.853Z,55.30
2022-08-03T09:59:13.274Z,55.58
2022-08-03T10:00:15.728Z,55.98
2022-08-03T10:01:23.978Z,56.18
2022-08-03T10:02:21.571Z,56.18
2022-08-03T10:03:23.531Z,56.20
2022-08-03T10:04:25.489Z,55.94
2022-08-03T10:05:27.435Z,55.04
2022-08-03T10:06:30.722Z,55.26
2022-08-03T10:09:00.207Z,55.46
2022-08-03T10:10:30.709Z,54.58
2022-08-03T10:11:05.974Z,53.85
2022-08-03T10:12:07.921Z,52.90
2022-08-03T10:13:09.881Z,52.82
2022-08-03T10:14:11.818Z,52.96
2022-08-03T10:16:22.720Z,52.18
2022-08-03T10:16:23.291Z,52.02
2022-08-03T10:17:23.117Z,51.36
2022-08-03T10:18:25.067Z,51.05
2022-08-03T10:19:27.021Z,50.83
2022-08-03T10:20:30.817Z,51.51
2022-08-03T10:21:34.283Z,52.02
2022-08-03T10:22:37.383Z,52.21
2022-08-03T10:23:39.431Z,51.72
2022-08-03T10:24:41.386Z,51.41
2022-08-03T10:25:43.328Z,51.37
2022-08-03T10:26:49.729Z,51.47
2022-08-03T10:27:49.187Z,51.78
2022-08-03T10:28:51.136Z,52.03
2022-08-03T10:29:53.089Z,52.08
2022-08-03T10:30:55.558Z,52.33
2022-08-03T10:31:58.529Z,52.53
2022-08-03T10:33:00.688Z,52.70
2022-08-03T10:34:02.636Z,52.29
2022-08-03T10:35:20.467Z,51.83
2022-08-03T10:36:09.407Z,51.90
2022-08-03T10:37:11.360Z,51.96
2022-08-03T10:38:13.312Z,52.31
2022-08-03T10:39:16.037Z,52.62
2022-08-03T10:40:39.592Z,52.98
2022-08-03T10:41:23.382Z,53.02
2022-08-03T10:42:26.381Z,53.27
2022-08-03T10:43:28.512Z,53.07
2022-08-03T10:44:30.458Z,53.05
2022-08-03T10:45:32.415Z,53.23
2022-08-03T10:46:34.580Z,53.25
2022-08-03T10:47:36.528Z,52.90
2022-08-03T10:48:38.481Z,52.88
2022-08-03T10:49:40.468Z,52.86
2022-08-03T10:50:42.701Z,53.25
2022-08-03T10:51:44.646Z,53.19
2022-08-03T10:52:49.195Z,53.40
2022-08-03T10:53:54.503Z,53.33
2022-08-03T10:54:54.913Z,52.85
2022-08-03T10:55:56.849Z,52.59
2022-08-03T10:57:01.856Z,52.40
2022-08-03T10:58:08.004Z,52.19
2022-08-03T10:59:08.861Z,52.25
2022-08-03T11:00:12.673Z,52.26
2022-08-03T11:01:14.642Z,52.31
2022-08-03T11:02:16.651Z,52.37
2022-08-03T11:03:18.838Z,52.37
2022-08-03T11:04:20.771Z,52.02
2022-08-03T11:05:22.725Z,51.79
2022-08-03T11:06:26.519Z,51.66
2022-08-03T11:07:28.471Z,51.44
2022-08-03T11:08:30.424Z,51.27
2022-08-03T11:09:32.373Z,51.27
2022-08-03T11:10:35.044Z,51.53
2022-08-03T11:11:36.996Z,51.75
2022-08-03T11:12:38.953Z,51.90
2022-08-03T11:13:40.908Z,52.17
2022-08-03T11:14:42.857Z,52.37
2022-08-03T11:15:46.656Z,52.34
2022-08-03T11:16:48.805Z,51.99
2022-08-03T11:17:55.994Z,51.66
2022-08-03T11:18:54.660Z,51.49
2022-08-03T11:19:58.346Z,51.54
2022-08-03T11:21:00.532Z,51.72
2022-08-03T11:22:02.560Z,51.42
2022-08-03T11:23:04.927Z,51.21
2022-08-03T11:24:07.033Z,51.09
2022-08-03T11:25:09.150Z,51.19
2022-08-03T11:26:14.360Z,51.30
2022-08-03T11:27:16.399Z,51.08
2022-08-03T11:28:18.680Z,50.97
2022-08-03T11:29:22.374Z,51.29
2022-08-03T11:30:26.568Z,51.49
2022-08-03T11:32:32.840Z,51.42
2022-08-03T11:33:34.784Z,51.32
2022-08-03T11:34:36.742Z,51.55
2022-08-03T11:35:38.689Z,51.31
2022-08-03T11:36:41.266Z,51.28
2022-08-03T11:37:43.206Z,51.41
2022-08-03T11:38:46.901Z,51.65
2022-08-03T11:39:48.853Z,51.96
2022-08-03T11:40:51.018Z,52.03
2022-08-03T11:41:53.478Z,51.62
2022-08-03T11:42:55.428Z,51.37
2022-08-03T11:43:57.999Z,51.04
2022-08-03T11:45:01.788Z,50.88
2022-08-03T11:46:03.847Z,50.89
2022-08-03T11:47:05.796Z,51.04
2022-08-03T11:48:07.758Z,51.17
2022-08-03T11:49:11.131Z,51.39
2022-08-03T11:50:15.145Z,51.61
2022-08-03T11:51:17.100Z,51.72
2022-08-03T11:52:19.042Z,51.78
2022-08-03T11:53:20.994Z,52.08
2022-08-03T11:54:22.946Z,52.08
2022-08-03T11:55:27.845Z,52.11
2022-08-03T11:56:29.422Z,52.08
2022-08-03T11:59:16.989Z,51.82
2022-08-03T11:59:17.367Z,51.81
2022-08-03T11:59:39.075Z,51.86
2022-08-03T12:00:41.225Z,51.80
2022-08-03T12:01:43.182Z,51.76
2022-08-03T12:02:45.159Z,51.41
2022-08-03T12:03:47.227Z,51.52
2022-08-03T12:04:49.240Z,51.57
2022-08-03T12:05:52.544Z,51.17
2022-08-03T12:06:54.905Z,51.49
2022-08-03T12:08:03.061Z,51.19
2022-08-03T12:09:01.339Z,51.27
2022-08-03T12:10:03.392Z,51.41
2022-08-03T12:11:05.346Z,50.85
2022-08-03T12:12:07.197Z,51.13
2022-08-03T12:13:56.685Z,51.15
2022-08-03T12:14:50.502Z,51.26
2022-08-03T12:15:16.751Z,51.02
2022-08-03T12:16:20.441Z,50.58
2022-08-03T12:17:22.616Z,50.58
2022-08-03T12:18:24.787Z,50.46
2022-08-03T12:19:26.708Z,50.23
2022-08-03T12:20:35.055Z,50.22
2022-08-03T12:21:33.491Z,50.23
2022-08-03T12:22:35.530Z,50.41
2022-08-03T12:23:38.046Z,50.58
2022-08-03T12:24:40.158Z,50.41
2022-08-03T12:25:42.110Z,50.46
2022-08-03T12:26:44.360Z,50.42
2022-08-03T12:27:48.067Z,50.47
2022-08-03T12:28:50.155Z,50.67
2022-08-03T12:29:58.638Z,50.71
2022-08-03T12:30:56.277Z,50.75
2022-08-03T12:31:58.438Z,50.79
2022-08-03T12:33:00.391Z,50.23
2022-08-03T12:34:02.330Z,50.00
2022-08-03T12:35:04.430Z,49.93
2022-08-03T12:36:06.748Z,49.94
2022-08-03T12:37:29.244Z,49.80
2022-08-03T12:38:12.393Z,49.67
2022-08-03T12:39:14.344Z,49.62
2022-08-03T12:40:22.138Z,49.91
2022-08-03T12:41:21.625Z,50.17
2022-08-03T12:42:23.786Z,50.27
2022-08-03T12:43:25.739Z,50.42
2022-08-03T12:44:29.534Z,50.28
2022-08-03T12:45:31.486Z,50.10
2022-08-03T12:46:33.541Z,50.00
2022-08-03T12:47:35.516Z,49.79
2022-08-03T12:48:37.445Z,49.77
2022-08-03T12:49:39.471Z,49.95
2022-08-03T12:50:41.764Z,50.03
2022-08-03T12:51:43.731Z,49.99
2022-08-03T12:52:45.668Z,49.68
2022-08-03T12:53:47.629Z,50.07
2022-08-03T12:54:49.569Z,50.28
2022-08-03T12:56:04.989Z,50.30
2022-08-03T12:56:55.637Z,49.94
2022-08-03T12:57:57.578Z,50.17
2022-08-03T12:58:59.532Z,50.20
2022-08-03T13:00:01.594Z,50.35
2022-08-03T13:01:05.049Z,50.34
2022-08-03T13:02:09.553Z,50.06
2022-08-03T13:03:39.375Z,49.72
2022-08-03T13:04:18.263Z,49.85
2022-08-03T13:05:18.923Z,50.08
2022-08-03T13:06:22.002Z,50.02
2022-08-03T13:07:24.052Z,49.87
2022-08-03T13:08:26.024Z,50.07
2022-08-03T13:09:27.974Z,50.31
2022-08-03T13:10:30.018Z,50.44
2022-08-03T13:11:57.449Z,50.24
2022-08-03T13:12:35.662Z,50.03
2022-08-03T13:13:37.618Z,49.92
2022-08-03T13:14:39.578Z,50.04
2022-08-03T13:15:47.962Z,49.69
2022-08-03T13:16:45.527Z,49.53
2022-08-03T13:17:47.487Z,49.47
2022-08-03T13:18:49.435Z,49.16
2022-08-03T13:19:51.385Z,48.95
2022-08-03T13:20:53.535Z,49.01
2022-08-03T13:22:04.156Z,49.01
2022-08-03T13:23:01.198Z,49.42
2022-08-03T13:24:03.283Z,49.55
2022-08-03T13:25:05.235Z,49.50
2022-08-03T13:26:07.889Z,49.13
2022-08-03T13:28:03.347Z,49.09